Time;durP1;ratioP1;P1;durP2;ratioP2;P2;SDS_P1;SDS_P2;PMS_P1;PMS_P2;Temp;Humidity;BMP_temperature;BMP_pressure;BME280_temperature;BME280_humidity;BME280_pressure;Samples;Min_cycle;Max_cycle;Signal;HPM_P1;HPM_P2
2021/08/06 00:00:13;;;;;;;15.70;14.40;;;17.50;99.90;;;;;;6194940;23;20184;-70
2021/08/06 00:02:42;;;;;;;15.77;14.43;;;17.50;99.90;;;;;;6186990;23;20451;-70
2021/08/06 00:05:12;;;;;;;15.20;13.90;;;17.40;99.90;;;;;;6196656;23;20735;-70
2021/08/06 00:07:40;;;;;;;14.87;13.77;;;17.40;99.90;;;;;;6160220;23;20495;-70
2021/08/06 00:10:09;;;;;;;15.10;13.97;;;17.30;99.90;;;;;;6196595;23;20406;-70
2021/08/06 00:12:37;;;;;;;14.83;13.70;;;17.30;99.90;;;;;;6186277;23;20879;-70
2021/08/06 00:15:07;;;;;;;14.13;13.07;;;17.30;99.90;;;;;;6160168;23;20894;-70
2021/08/06 00:17:36;;;;;;;16.30;14.93;;;17.20;99.90;;;;;;6196460;23;20398;-70
2021/08/06 00:20:07;;;;;;;16.20;14.90;;;17.20;99.90;;;;;;6185405;23;20732;-70
2021/08/06 00:22:35;;;;;;;15.63;14.33;;;17.30;99.90;;;;;;6159963;23;20539;-70
2021/08/06 00:25:04;;;;;;;15.90;14.60;;;17.30;99.90;;;;;;6195633;23;20958;-70
2021/08/06 00:27:32;;;;;;;15.27;14.00;;;17.30;99.90;;;;;;6160167;23;20173;-70
2021/08/06 00:30:00;;;;;;;14.63;13.63;;;17.30;99.90;;;;;;6196528;23;20479;-70
2021/08/06 00:32:29;;;;;;;14.97;13.63;;;17.20;99.90;;;;;;6196294;23;20415;-70
2021/08/06 00:35:03;;;;;;;14.70;13.60;;;17.20;99.90;;;;;;6160290;23;20416;-71
2021/08/06 00:37:32;;;;;;;15.03;13.93;;;17.20;99.90;;;;;;6159902;23;20411;-70
2021/08/06 00:40:03;;;;;;;14.90;13.80;;;17.10;99.90;;;;;;6159708;23;20527;-71
2021/08/06 00:42:36;;;;;;;16.47;15.17;;;17.10;99.90;;;;;;6159870;23;20437;-70
2021/08/06 00:45:07;;;;;;;14.97;13.67;;;17.10;99.90;;;;;;6159938;23;20416;-70
2021/08/06 00:47:37;;;;;;;16.65;15.35;;;17.00;99.90;;;;;;6159991;23;20411;-70
2021/08/06 00:50:09;;;;;;;15.13;13.93;;;17.10;99.90;;;;;;6160120;23;20172;-70
2021/08/06 00:52:39;;;;;;;15.43;14.33;;;17.10;99.90;;;;;;6160591;23;20444;-70
2021/08/06 00:55:09;;;;;;;16.80;15.30;;;17.00;99.90;;;;;;6159556;23;20934;-70
2021/08/06 00:57:38;;;;;;;14.27;13.17;;;17.00;99.90;;;;;;6159870;23;20426;-70
2021/08/06 01:00:16;;;;;;;15.87;14.57;;;17.00;99.90;;;;;;6159860;23;20460;-70
2021/08/06 01:02:54;;;;;;;15.27;14.00;;;16.90;99.90;;;;;;6196416;23;20419;-70
2021/08/06 01:05:30;;;;;;;15.27;14.07;;;16.90;99.90;;;;;;6159762;23;20947;-70
2021/08/06 01:08:07;;;;;;;14.87;13.53;;;16.90;99.90;;;;;;6159794;23;20749;-70
2021/08/06 01:10:45;;;;;;;14.33;13.23;;;16.90;99.90;;;;;;6159948;23;20416;-70
2021/08/06 01:13:17;;;;;;;15.03;13.73;;;16.80;99.90;;;;;;6159421;23;20498;-70
2021/08/06 01:15:52;;;;;;;15.52;14.32;;;16.80;99.90;;;;;;6159138;23;20422;-70
2021/08/06 01:18:21;;;;;;;14.80;13.60;;;16.80;99.90;;;;;;6159330;23;20172;-70
2021/08/06 01:20:55;;;;;;;16.05;14.75;;;16.80;99.90;;;;;;6159004;23;20411;-70
2021/08/06 01:23:28;;;;;;;15.10;13.80;;;16.80;99.90;;;;;;6159849;23;20193;-70
2021/08/06 01:26:00;;;;;;;15.67;14.53;;;16.80;99.90;;;;;;6159625;23;20403;-69
2021/08/06 01:28:52;;;;;;;15.53;14.33;;;16.80;99.90;;;;;;6185386;23;20404;-70
2021/08/06 01:31:26;;;;;;;15.93;14.63;;;16.70;99.90;;;;;;6159363;23;20915;-71
2021/08/06 01:34:07;;;;;;;15.90;14.60;;;16.70;99.90;;;;;;6160513;23;20420;-70
2021/08/06 01:36:37;;;;;;;15.13;14.03;;;16.60;99.90;;;;;;6160511;23;20445;-70
2021/08/06 01:39:06;;;;;;;14.80;13.60;;;16.60;99.90;;;;;;6159508;23;20444;-70
2021/08/06 01:41:53;;;;;;;16.53;15.23;;;16.60;99.90;;;;;;6154093;23;20762;-70
2021/08/06 01:44:27;;;;;;;16.38;15.10;;;16.60;99.90;;;;;;6154284;23;20423;-70
2021/08/06 01:47:07;;;;;;;16.37;14.97;;;16.50;99.90;;;;;;6154564;23;20172;-70
2021/08/06 01:49:41;;;;;;;16.05;14.82;;;16.60;99.90;;;;;;6154486;23;20496;-70
2021/08/06 01:52:15;;;;;;;17.27;15.97;;;16.50;99.90;;;;;;6154286;23;20195;-70
2021/08/06 01:54:48;;;;;;;16.03;14.73;;;16.60;99.90;;;;;;6154726;23;20454;-70
2021/08/06 01:57:19;;;;;;;15.60;14.10;;;16.50;99.90;;;;;;6154413;23;20415;-70
2021/08/06 01:59:49;;;;;;;16.27;14.97;;;16.50;99.90;;;;;;6154424;23;20423;-70
2021/08/06 02:02:17;;;;;;;17.47;16.07;;;16.40;99.90;;;;;;6153907;23;20552;-70
2021/08/06 02:04:48;;;;;;;16.17;14.83;;;16.40;99.90;;;;;;6154328;23;20451;-70
2021/08/06 02:07:20;;;;;;;15.67;14.27;;;16.40;99.90;;;;;;6154516;23;20432;-70
2021/08/06 02:09:55;;;;;;;16.40;15.00;;;16.30;99.90;;;;;;6154232;23;20380;-70
2021/08/06 02:12:33;;;;;;;16.87;15.57;;;16.30;99.90;;;;;;6154107;23;20904;-70
2021/08/06 02:15:07;;;;;;;16.87;15.37;;;16.30;99.90;;;;;;6154888;23;20385;-70
2021/08/06 02:17:38;;;;;;;17.90;16.20;;;16.30;99.90;;;;;;6153990;23;20483;-70
2021/08/06 02:20:23;;;;;;;16.13;14.70;;;16.20;99.90;;;;;;6154841;23;20185;-70
2021/08/06 02:22:54;;;;;;;17.50;16.10;;;16.20;99.90;;;;;;6153805;23;20452;-70
2021/08/06 02:25:24;;;;;;;17.47;16.17;;;16.20;99.90;;;;;;6154184;23;20442;-70
2021/08/06 02:27:57;;;;;;;18.73;17.00;;;16.20;99.90;;;;;;6154574;23;20421;-70
2021/08/06 02:30:32;;;;;;;18.53;16.87;;;16.10;99.90;;;;;;6154158;23;20962;-70
2021/08/06 02:33:01;;;;;;;16.83;15.53;;;16.10;99.90;;;;;;6153796;23;20426;-70
2021/08/06 02:35:29;;;;;;;17.73;16.37;;;16.10;99.90;;;;;;6154375;23;20491;-70
2021/08/06 02:37:57;;;;;;;18.50;16.90;;;16.10;99.90;;;;;;6154112;23;20446;-70
2021/08/06 02:40:25;;;;;;;18.23;16.80;;;16.10;99.90;;;;;;6172474;23;20419;-70
2021/08/06 02:42:58;;;;;;;18.75;17.05;;;16.10;99.90;;;;;;6194575;23;20411;-70
2021/08/06 02:45:26;;;;;;;18.67;17.17;;;16.10;99.90;;;;;;6195423;23;20239;-70
2021/08/06 02:47:55;;;;;;;20.92;19.02;;;16.10;99.90;;;;;;6184881;23;20430;-70
2021/08/06 02:50:23;;;;;;;18.67;16.97;;;16.10;99.90;;;;;;6195223;23;20513;-70
2021/08/06 02:52:51;;;;;;;17.37;16.07;;;16.10;99.90;;;;;;6158869;23;20985;-70
2021/08/06 02:55:20;;;;;;;18.33;16.77;;;16.00;99.90;;;;;;6159230;23;20416;-70
2021/08/06 02:57:48;;;;;;;19.27;17.60;;;16.00;99.90;;;;;;6195595;23;20404;-70
2021/08/06 03:00:19;;;;;;;17.70;16.20;;;15.90;99.90;;;;;;6185524;23;20433;-70
2021/08/06 03:02:47;;;;;;;18.07;16.63;;;15.90;99.90;;;;;;6158612;23;20448;-70
2021/08/06 03:05:15;;;;;;;18.30;16.80;;;15.90;99.90;;;;;;6195522;23;20400;-70
2021/08/06 03:07:48;;;;;;;20.00;18.20;;;15.80;99.90;;;;;;6158783;23;20454;-70
2021/08/06 03:10:21;;;;;;;19.10;17.23;;;15.80;99.90;;;;;;6158674;23;20450;-70
2021/08/06 03:12:50;;;;;;;19.48;17.88;;;15.80;99.90;;;;;;6157520;23;20488;-70
2021/08/06 03:15:23;;;;;;;17.97;16.50;;;15.90;99.90;;;;;;6158753;23;20176;-70
2021/08/06 03:17:51;;;;;;;20.67;18.93;;;15.80;99.90;;;;;;6193999;23;20739;-70
2021/08/06 03:20:22;;;;;;;20.53;18.73;;;15.90;99.90;;;;;;6195173;23;20435;-70
2021/08/06 03:22:54;;;;;;;19.60;18.00;;;15.80;99.90;;;;;;6158532;23;20447;-70
2021/08/06 03:25:23;;;;;;;18.07;16.43;;;15.80;99.90;;;;;;6158773;23;20790;-70
2021/08/06 03:27:55;;;;;;;18.80;17.10;;;15.70;99.90;;;;;;6160002;23;20415;-70
2021/08/06 03:30:28;;;;;;;18.70;17.10;;;15.70;99.90;;;;;;6159323;23;20419;-70
2021/08/06 03:32:57;;;;;;;19.60;17.97;;;15.70;99.90;;;;;;6158647;23;20427;-70
2021/08/06 03:35:26;;;;;;;19.93;18.20;;;15.60;99.90;;;;;;6159921;23;20386;-70
2021/08/06 03:37:55;;;;;;;18.30;16.60;;;15.60;99.90;;;;;;6186904;23;20891;-70
2021/08/06 03:40:23;;;;;;;20.47;18.47;;;15.60;99.90;;;;;;6155569;23;20442;-70
2021/08/06 03:42:51;;;;;;;21.60;19.80;;;15.60;99.90;;;;;;6155025;23;20420;-70
2021/08/06 03:45:19;;;;;;;19.20;17.50;;;15.60;99.90;;;;;;6167061;23;20180;-70
2021/08/06 03:47:49;;;;;;;20.70;19.00;;;15.60;99.90;;;;;;6154500;23;20973;-70
2021/08/06 03:50:18;;;;;;;20.20;18.40;;;15.70;99.90;;;;;;6155760;23;20515;-70
2021/08/06 03:52:47;;;;;;;19.30;17.60;;;15.70;99.90;;;;;;6157531;23;20423;-70
2021/08/06 03:55:15;;;;;;;19.03;17.53;;;15.60;99.90;;;;;;6155146;23;20408;-70
2021/08/06 03:57:49;;;;;;;21.93;20.03;;;15.60;99.90;;;;;;6156306;23;20904;-70
2021/08/06 04:00:19;;;;;;;24.17;22.03;;;15.60;99.90;;;;;;6156382;23;20415;-70
2021/08/06 04:02:50;;;;;;;20.53;18.87;;;15.50;99.90;;;;;;6166670;23;20731;-70
2021/08/06 04:05:21;;;;;;;20.30;18.60;;;15.50;99.90;;;;;;6155726;23;20390;-70
2021/08/06 04:07:50;;;;;;;22.13;20.10;;;15.50;99.90;;;;;;6155327;23;20421;-70
2021/08/06 04:10:24;;;;;;;20.80;18.80;;;15.50;99.90;;;;;;6155294;23;20391;-70
2021/08/06 04:12:53;;;;;;;30.60;27.70;;;15.40;99.90;;;;;;6154506;23;20863;-70
2021/08/06 04:15:22;;;;;;;24.47;22.20;;;15.50;99.90;;;;;;6155306;23;20529;-70
2021/08/06 04:17:51;;;;;;;19.37;17.77;;;15.50;99.90;;;;;;6166950;23;20487;-70
2021/08/06 04:20:20;;;;;;;20.17;18.47;;;15.50;99.90;;;;;;6155433;23;20909;-70
2021/08/06 04:22:48;;;;;;;20.80;19.00;;;15.40;99.90;;;;;;6154975;23;20556;-70
2021/08/06 04:25:16;;;;;;;21.10;19.20;;;15.40;99.90;;;;;;6155079;23;20409;-70
2021/08/06 04:27:45;;;;;;;20.40;18.60;;;15.40;99.90;;;;;;6155112;23;20900;-70
2021/08/06 04:30:14;;;;;;;19.33;17.63;;;15.40;99.90;;;;;;6155202;23;20533;-70
2021/08/06 04:32:43;;;;;;;19.87;18.23;;;15.40;99.90;;;;;;6155046;23;20471;-70
2021/08/06 04:35:14;;;;;;;20.03;17.97;;;15.40;99.90;;;;;;6155157;23;20391;-70
2021/08/06 04:37:50;;;;;;;19.60;18.00;;;15.40;99.90;;;;;;6166545;23;20400;-70
2021/08/06 04:40:19;;;;;;;21.13;19.17;;;15.40;99.90;;;;;;6155070;23;20428;-70
2021/08/06 04:42:47;;;;;;;22.02;20.02;;;15.40;99.90;;;;;;6154772;23;20413;-70
2021/08/06 04:45:15;;;;;;;20.00;18.27;;;15.40;99.90;;;;;;6155098;23;20622;-69
2021/08/06 04:47:45;;;;;;;21.02;19.13;;;15.40;99.90;;;;;;6154475;23;20423;-70
2021/08/06 04:50:17;;;;;;;21.03;19.17;;;15.40;99.90;;;;;;6154804;23;20226;-70
2021/08/06 04:52:50;;;;;;;21.77;19.87;;;15.40;99.90;;;;;;6154917;23;20953;-70
2021/08/06 04:55:19;;;;;;;19.20;17.60;;;15.40;99.90;;;;;;6154954;23;20514;-70
2021/08/06 04:57:47;;;;;;;21.27;19.30;;;15.40;99.90;;;;;;6154965;23;20438;-70
2021/08/06 05:00:18;;;;;;;21.07;19.27;;;15.40;99.90;;;;;;6154978;23;20482;-70
2021/08/06 05:02:47;;;;;;;20.87;18.93;;;15.40;99.90;;;;;;6155415;23;20419;-70
2021/08/06 05:05:16;;;;;;;20.60;19.00;;;15.40;99.90;;;;;;6155800;23;20387;-70
2021/08/06 05:07:50;;;;;;;20.90;19.17;;;15.40;99.90;;;;;;6154868;23;20879;-70
2021/08/06 05:10:22;;;;;;;20.93;19.13;;;15.40;99.90;;;;;;6154719;23;20898;-70
2021/08/06 05:12:51;;;;;;;21.00;19.00;;;15.40;99.90;;;;;;6154698;23;20949;-69
2021/08/06 05:15:20;;;;;;;20.50;18.80;;;15.50;99.90;;;;;;6155414;23;20706;-70
2021/08/06 05:17:49;;;;;;;19.40;17.60;;;15.50;99.90;;;;;;6154723;23;20395;-69
2021/08/06 05:20:19;;;;;;;21.23;19.43;;;15.50;99.90;;;;;;6154656;23;20892;-69
2021/08/06 05:22:48;;;;;;;19.73;17.93;;;15.50;99.90;;;;;;6154500;23;20462;-69
2021/08/06 05:25:18;;;;;;;18.90;17.37;;;15.50;99.90;;;;;;6154779;23;20466;-69
2021/08/06 05:27:47;;;;;;;20.07;18.37;;;15.50;99.90;;;;;;6154670;23;20422;-69
2021/08/06 05:30:20;;;;;;;19.80;18.10;;;15.60;99.90;;;;;;6154925;23;20391;-69
2021/08/06 05:32:48;;;;;;;20.73;19.03;;;15.60;99.90;;;;;;6154394;23;20408;-69
2021/08/06 05:35:19;;;;;;;20.77;18.93;;;15.60;99.90;;;;;;6154641;23;20786;-69
2021/08/06 05:37:48;;;;;;;20.33;18.43;;;15.70;99.90;;;;;;6154824;23;20448;-69
2021/08/06 05:40:18;;;;;;;19.63;17.90;;;15.70;99.90;;;;;;6154567;23;20726;-70
2021/08/06 05:42:47;;;;;;;20.97;19.20;;;15.70;99.90;;;;;;6154366;23;20515;-69
2021/08/06 05:45:16;;;;;;;21.50;19.60;;;15.80;99.90;;;;;;6154428;23;20395;-69
2021/08/06 05:47:46;;;;;;;20.17;18.47;;;15.80;99.90;;;;;;6154438;23;20439;-69
2021/08/06 05:50:17;;;;;;;19.97;18.27;;;15.80;99.90;;;;;;6154591;23;20405;-69
2021/08/06 05:52:48;;;;;;;19.53;17.53;;;15.90;99.90;;;;;;6154518;23;20411;-69
2021/08/06 05:55:18;;;;;;;20.33;18.40;;;15.90;99.90;;;;;;6155155;23;20492;-69
2021/08/06 05:57:52;;;;;;;19.03;17.47;;;16.10;99.90;;;;;;6153940;23;20447;-69
2021/08/06 06:00:21;;;;;;;17.77;16.27;;;16.20;99.90;;;;;;6154335;23;20424;-69
2021/08/06 06:02:57;;;;;;;19.67;18.08;;;16.40;99.90;;;;;;6153156;23;20409;-69
2021/08/06 06:05:41;;;;;;;16.80;15.30;;;16.70;99.90;;;;;;6155648;23;20165;-69
2021/08/06 06:08:10;;;;;;;17.67;16.33;;;16.90;99.90;;;;;;6154387;23;20417;-69
2021/08/06 06:10:38;;;;;;;19.07;17.47;;;17.10;99.90;;;;;;6165906;23;20392;-69
2021/08/06 06:13:07;;;;;;;18.20;16.70;;;17.40;99.90;;;;;;6154646;23;20407;-70
2021/08/06 06:15:36;;;;;;;14.67;13.63;;;17.70;99.90;;;;;;6155289;23;20417;-69
2021/08/06 06:18:05;;;;;;;14.37;13.17;;;18.00;99.90;;;;;;6165858;23;20807;-69
2021/08/06 06:20:33;;;;;;;14.33;13.13;;;18.30;99.90;;;;;;6154447;23;20975;-69
2021/08/06 06:23:03;;;;;;;13.83;12.63;;;18.50;99.90;;;;;;6154062;23;21036;-69
2021/08/06 06:25:33;;;;;;;14.57;13.27;;;18.60;99.90;;;;;;6154254;23;20483;-69
2021/08/06 06:28:05;;;;;;;13.77;12.63;;;18.80;99.90;;;;;;6166052;23;20759;-69
2021/08/06 06:30:38;;;;;;;14.43;13.23;;;18.80;99.90;;;;;;6154332;23;20412;-70
2021/08/06 06:33:07;;;;;;;13.30;12.20;;;18.80;99.90;;;;;;6154043;23;20507;-69
2021/08/06 06:35:37;;;;;;;15.90;14.60;;;18.90;99.90;;;;;;6154508;23;20915;-69
2021/08/06 06:38:06;;;;;;;13.97;12.80;;;18.90;99.90;;;;;;6154097;23;20423;-69
2021/08/06 06:40:37;;;;;;;12.70;11.60;;;18.90;99.90;;;;;;6154413;23;20425;-69
2021/08/06 06:43:12;;;;;;;13.13;12.13;;;19.00;99.90;;;;;;6154493;23;20464;-69
2021/08/06 06:45:40;;;;;;;12.93;11.93;;;19.00;99.90;;;;;;6165651;23;20726;-69
2021/08/06 06:48:09;;;;;;;12.90;11.70;;;19.00;99.90;;;;;;6154307;23;20441;-69
2021/08/06 06:50:40;;;;;;;12.60;11.60;;;19.00;99.90;;;;;;6154156;23;20743;-70
2021/08/06 06:53:08;;;;;;;13.30;12.20;;;19.10;99.90;;;;;;6154145;23;20437;-69
2021/08/06 06:55:38;;;;;;;12.27;11.37;;;19.10;99.90;;;;;;6154236;23;20416;-69
2021/08/06 06:58:07;;;;;;;12.87;11.83;;;19.10;99.90;;;;;;6155206;23;20422;-69
2021/08/06 07:00:35;;;;;;;12.32;11.40;;;19.20;99.90;;;;;;6153121;23;20413;-69
2021/08/06 07:03:09;;;;;;;12.20;11.17;;;19.20;99.90;;;;;;6154042;23;20197;-69
2021/08/06 07:05:38;;;;;;;12.47;11.47;;;19.30;99.90;;;;;;6153255;23;20445;-69
2021/08/06 07:08:06;;;;;;;12.37;11.30;;;19.40;99.90;;;;;;6153966;23;20425;-69
2021/08/06 07:10:39;;;;;;;12.33;11.27;;;19.60;99.90;;;;;;6155417;23;20409;-69
2021/08/06 07:13:08;;;;;;;13.13;12.10;;;19.90;99.90;;;;;;6156268;23;20492;-69
2021/08/06 07:15:36;;;;;;;11.87;10.97;;;20.10;99.90;;;;;;6155856;23;20904;-69
2021/08/06 07:18:04;;;;;;;11.50;10.60;;;20.50;99.90;;;;;;6167307;23;20401;-69
2021/08/06 07:20:32;;;;;;;11.50;10.40;;;20.70;99.90;;;;;;6155796;23;20416;-69
2021/08/06 07:23:00;;;;;;;11.37;10.47;;;20.80;99.90;;;;;;6155769;23;20495;-69
2021/08/06 07:25:29;;;;;;;10.00;9.30;;;20.90;99.90;;;;;;6155685;23;20483;-69
2021/08/06 07:28:03;;;;;;;10.60;9.80;;;21.00;99.90;;;;;;6156015;23;20415;-69
2021/08/06 07:30:32;;;;;;;10.85;10.05;;;21.00;99.90;;;;;;6154528;23;20420;-70
2021/08/06 07:33:01;;;;;;;10.37;9.47;;;21.10;99.90;;;;;;6156123;23;20193;-69
2021/08/06 07:35:32;;;;;;;10.50;9.60;;;21.10;99.90;;;;;;6156139;23;20412;-69
2021/08/06 07:38:01;;;;;;;9.50;8.70;;;21.30;99.90;;;;;;6157446;23;20665;-69
2021/08/06 07:40:30;;;;;;;10.60;9.70;;;21.40;99.90;;;;;;6156720;23;20479;-70
2021/08/06 07:43:00;;;;;;;9.03;8.33;;;21.50;99.90;;;;;;6157200;23;20444;-69
2021/08/06 07:45:30;;;;;;;9.63;8.93;;;21.50;99.90;;;;;;6158454;23;20784;-69
2021/08/06 07:48:00;;;;;;;10.77;9.90;;;21.50;99.90;;;;;;6159341;23;20448;-69
2021/08/06 07:50:29;;;;;;;9.00;8.30;;;21.70;99.90;;;;;;6158672;23;20454;-69
2021/08/06 07:52:58;;;;;;;8.67;7.97;;;21.90;99.90;;;;;;6155889;23;20432;-69
2021/08/06 07:55:27;;;;;;;7.97;7.17;;;21.90;99.90;;;;;;6155636;23;20428;-69
2021/08/06 07:57:56;;;;;;;8.07;7.40;;;21.90;99.90;;;;;;6154626;23;20724;-69
2021/08/06 08:00:25;;;;;;;8.23;7.53;;;22.00;99.90;;;;;;6155368;23;20169;-69
2021/08/06 08:02:55;;;;;;;7.68;6.75;;;22.00;99.90;;;;;;6154811;23;20416;-69
2021/08/06 08:05:30;;;;;;;7.13;6.30;;;22.00;99.90;;;;;;6155498;23;20181;-69
2021/08/06 08:08:03;;;;;;;7.33;6.83;;;22.10;99.90;;;;;;6155541;23;20416;-69
2021/08/06 08:10:33;;;;;;;7.60;7.00;;;22.10;99.90;;;;;;6155606;23;20424;-70
2021/08/06 08:13:12;;;;;;;8.17;7.57;;;22.20;99.90;;;;;;6155493;23;20978;-69
2021/08/06 08:15:42;;;;;;;6.77;6.17;;;22.30;99.90;;;;;;6156028;23;20908;-69
2021/08/06 08:18:12;;;;;;;7.20;6.50;;;22.50;99.90;;;;;;6155594;23;20419;-69
2021/08/06 08:20:41;;;;;;;7.87;7.17;;;22.60;99.90;;;;;;6155079;23;20412;-69
2021/08/06 08:23:10;;;;;;;6.20;5.80;;;22.80;99.90;;;;;;6154820;23;20832;-69
2021/08/06 08:25:38;;;;;;;6.63;6.13;;;23.00;99.90;;;;;;6155146;23;20440;-69
2021/08/06 08:28:07;;;;;;;7.60;7.00;;;23.10;99.90;;;;;;6154748;23;20404;-69
2021/08/06 08:30:37;;;;;;;7.20;6.67;;;23.20;99.90;;;;;;6155291;23;20169;-69
2021/08/06 08:33:08;;;;;;;6.30;5.80;;;23.30;99.90;;;;;;6155068;23;20756;-69
2021/08/06 08:35:38;;;;;;;7.03;6.33;;;23.40;99.90;;;;;;6155240;23;20409;-69
2021/08/06 08:38:06;;;;;;;6.77;6.23;;;23.50;99.90;;;;;;6166612;23;20713;-69
2021/08/06 08:40:34;;;;;;;7.53;6.93;;;23.50;99.90;;;;;;6175473;23;20462;-69
2021/08/06 08:43:04;;;;;;;7.07;6.10;;;23.70;99.90;;;;;;6160093;23;20919;-69
2021/08/06 08:45:32;;;;;;;6.20;5.67;;;23.80;99.90;;;;;;6160033;23;20443;-69
2021/08/06 08:48:00;;;;;;;6.83;5.70;;;23.90;99.90;;;;;;6160124;23;20412;-69
2021/08/06 08:50:29;;;;;;;5.53;5.03;;;24.00;99.90;;;;;;6160040;23;20415;-69
2021/08/06 08:53:03;;;;;;;6.30;5.80;;;24.20;99.90;;;;;;6161028;23;20462;-69
2021/08/06 08:55:33;;;;;;;5.57;5.17;;;24.30;99.90;;;;;;6159991;23;20415;-69
2021/08/06 08:58:01;;;;;;;5.60;5.10;;;24.30;99.90;;;;;;6159263;23;20418;-69
2021/08/06 09:00:29;;;;;;;6.20;5.70;;;24.40;99.90;;;;;;6160140;23;20231;-70
2021/08/06 09:02:58;;;;;;;5.30;4.90;;;24.40;99.90;;;;;;6159720;23;20871;-69
2021/08/06 09:05:28;;;;;;;5.57;5.17;;;24.50;99.90;;;;;;6159784;23;20670;-69
2021/08/06 09:08:19;;;;;;;5.70;5.20;;;24.50;99.90;;;;;;6159923;23;20407;-70
2021/08/06 09:11:26;;;;;;;5.00;4.50;;;24.60;99.90;;;;;;6196253;23;20394;-70
2021/08/06 09:14:18;;;;;;;4.57;4.27;;;24.60;99.90;;;;;;6186106;23;20418;-70
2021/08/06 09:17:01;;;;;;;5.40;4.90;;;24.50;99.90;;;;;;6186169;23;20407;-70
2021/08/06 09:19:31;;;;;;;4.87;4.37;;;24.50;99.90;;;;;;6159538;23;20403;-69
2021/08/06 09:22:15;;;;;;;4.90;4.50;;;24.40;99.90;;;;;;6196062;23;20502;-70
2021/08/06 09:25:08;;;;;;;4.27;3.97;;;24.30;99.90;;;;;;6160376;23;20466;-70
2021/08/06 09:27:39;;;;;;;4.40;4.00;;;24.30;99.90;;;;;;6153072;23;20415;-70
2021/08/06 09:30:14;;;;;;;4.33;3.93;;;24.30;99.90;;;;;;6196347;23;20482;-70
2021/08/06 09:32:51;;;;;;;5.63;4.30;;;24.30;99.90;;;;;;6195915;23;20419;-70
2021/08/06 09:35:21;;;;;;;4.80;4.20;;;24.30;99.90;;;;;;6195759;23;20438;-70
2021/08/06 09:37:49;;;;;;;4.60;4.20;;;24.20;99.90;;;;;;6195834;23;20933;-70
2021/08/06 09:40:24;;;;;;;4.00;3.70;;;24.20;99.90;;;;;;6190363;23;20514;-70
2021/08/06 09:42:55;;;;;;;4.40;4.07;;;24.20;99.90;;;;;;6196420;23;20450;-70
2021/08/06 09:45:26;;;;;;;5.30;4.90;;;24.20;99.90;;;;;;6195788;23;20423;-70
2021/08/06 09:47:56;;;;;;;4.30;4.00;;;24.20;99.90;;;;;;6196028;23;20572;-70
2021/08/06 09:50:31;;;;;;;4.70;4.30;;;24.10;99.90;;;;;;6196236;23;20599;-70
2021/08/06 09:52:59;;;;;;;4.47;4.10;;;24.00;99.90;;;;;;6185361;23;20411;-70
2021/08/06 09:55:31;;;;;;;4.37;4.07;;;24.10;99.90;;;;;;6195809;23;20160;-70
2021/08/06 09:58:01;;;;;;;6.33;4.70;;;24.00;99.90;;;;;;6195989;23;20384;-69
2021/08/06 10:00:34;;;;;;;4.83;4.10;;;24.00;99.90;;;;;;6196065;23;20386;-70
2021/08/06 10:03:02;;;;;;;3.93;3.63;;;24.00;99.90;;;;;;6195701;23;20420;-70
2021/08/06 10:05:32;;;;;;;4.40;4.10;;;24.00;99.90;;;;;;6195932;23;21001;-70
2021/08/06 10:08:02;;;;;;;3.90;3.50;;;24.00;99.90;;;;;;6195352;23;20458;-70
2021/08/06 10:10:36;;;;;;;3.60;3.30;;;23.90;99.90;;;;;;6196318;23;20391;-70
2021/08/06 10:13:06;;;;;;;4.60;4.17;;;23.90;99.90;;;;;;6195654;23;20416;-70
2021/08/06 10:15:35;;;;;;;5.30;3.97;;;23.80;99.90;;;;;;6160921;23;20397;-70
2021/08/06 10:18:04;;;;;;;4.23;3.93;;;23.80;99.90;;;;;;6159344;23;20411;-70
2021/08/06 10:20:33;;;;;;;4.40;4.00;;;23.80;99.90;;;;;;6194102;23;20519;-70
2021/08/06 10:23:01;;;;;;;4.30;4.00;;;23.90;99.90;;;;;;6196070;23;20439;-70
2021/08/06 10:25:33;;;;;;;4.47;4.17;;;23.80;99.90;;;;;;6195425;23;20823;-70
2021/08/06 10:28:05;;;;;;;4.47;4.17;;;23.80;99.90;;;;;;6195641;23;20566;-70
2021/08/06 10:30:35;;;;;;;4.13;3.73;;;23.90;99.90;;;;;;6185656;23;20878;-70
2021/08/06 10:33:08;;;;;;;3.43;3.23;;;23.90;99.90;;;;;;6195880;23;20416;-70
2021/08/06 10:35:46;;;;;;;3.97;3.67;;;23.90;99.90;;;;;;6196390;23;20415;-69
2021/08/06 10:38:15;;;;;;;3.10;2.90;;;24.00;99.90;;;;;;6195941;23;20418;-70
2021/08/06 10:40:57;;;;;;;4.50;4.10;;;24.00;99.90;;;;;;6195322;23;20407;-70
2021/08/06 10:43:40;;;;;;;4.37;3.70;;;24.10;99.90;;;;;;6195699;23;20815;-70
2021/08/06 10:46:09;;;;;;;3.60;3.30;;;24.10;99.90;;;;;;6158886;23;20453;-70
2021/08/06 10:48:40;;;;;;;4.13;3.57;;;24.10;99.90;;;;;;6195635;23;20482;-70
2021/08/06 10:51:30;;;;;;;5.10;3.97;;;24.10;99.90;;;;;;6157669;23;20419;-70
2021/08/06 10:54:35;;;;;;;4.00;3.60;;;24.20;99.90;;;;;;6159052;23;20172;-70
2021/08/06 10:57:26;;;;;;;5.90;4.00;;;24.10;99.90;;;;;;6185525;23;20407;-70
2021/08/06 10:59:59;;;;;;;3.10;2.90;;;24.00;99.90;;;;;;6195553;23;20383;-70
2021/08/06 11:02:42;;;;;;;5.40;3.07;;;23.90;99.90;;;;;;6158835;23;20778;-70
2021/08/06 11:05:45;;;;;;;3.93;3.60;;;23.80;99.90;;;;;;6196032;23;20454;-70
2021/08/06 11:08:44;;;;;;;3.20;3.00;;;23.70;99.90;;;;;;6158939;23;20539;-70
2021/08/06 11:11:47;;;;;;;3.70;3.40;;;23.60;99.90;;;;;;6195475;23;20573;-70
2021/08/06 11:14:19;;;;;;;3.80;3.50;;;23.50;99.90;;;;;;6194519;23;20802;-70
2021/08/06 11:17:01;;;;;;;4.13;3.63;;;23.40;99.90;;;;;;6185553;23;20222;-70
2021/08/06 11:19:32;;;;;;;4.67;3.67;;;23.30;99.90;;;;;;6195184;23;20390;-70
2021/08/06 11:22:02;;;;;;;4.07;3.30;;;23.30;99.90;;;;;;6195705;23;20466;-70
2021/08/06 11:24:39;;;;;;;5.77;3.80;;;23.20;99.90;;;;;;6195754;23;20387;-70
2021/08/06 11:27:08;;;;;;;2.20;2.00;;;23.10;99.90;;;;;;6195400;23;20419;-71
2021/08/06 11:29:39;;;;;;;2.20;1.70;;;23.00;99.90;;;;;;6158495;23;20408;-71
2021/08/06 11:32:09;;;;;;;2.20;1.90;;;22.80;99.90;;;;;;6158628;23;21068;-71
2021/08/06 11:34:51;;;;;;;2.33;1.40;;;22.60;99.90;;;;;;6185045;23;20981;-71
2021/08/06 11:37:20;;;;;;;3.95;1.80;;;22.40;99.90;;;;;;6157675;23;20411;-71
2021/08/06 11:40:04;;;;;;;1.60;1.20;;;22.30;99.90;;;;;;6158735;23;20203;-71
2021/08/06 11:42:32;;;;;;;1.90;1.27;;;22.10;99.90;;;;;;6194913;23;20489;-71
2021/08/06 11:45:03;;;;;;;3.37;1.20;;;21.90;99.90;;;;;;6195645;23;20168;-70
2021/08/06 11:47:39;;;;;;;1.60;1.23;;;21.80;99.90;;;;;;6196197;23;20879;-70
2021/08/06 11:50:10;;;;;;;2.60;1.50;;;21.70;99.90;;;;;;6195478;23;20483;-70
2021/08/06 11:52:43;;;;;;;2.00;1.60;;;21.50;99.90;;;;;;6159017;23;20467;-70
2021/08/06 11:55:15;;;;;;;3.33;1.60;;;21.40;99.90;;;;;;6195381;23;20380;-70
2021/08/06 11:57:51;;;;;;;2.93;2.03;;;21.30;99.90;;;;;;6160613;23;20441;-71
2021/08/06 12:00:30;;;;;;;1.67;1.43;;;21.20;99.90;;;;;;6186809;23;20392;-71
2021/08/06 12:03:07;;;;;;;2.07;1.77;;;21.20;99.90;;;;;;6197232;23;20906;-70
2021/08/06 12:05:37;;;;;;;2.40;1.40;;;21.10;99.90;;;;;;6187206;23;20387;-70
2021/08/06 12:08:19;;;;;;;2.37;2.10;;;21.10;99.90;;;;;;6195806;23;20869;-70
2021/08/06 12:10:49;;;;;;;2.20;2.00;;;21.10;99.90;;;;;;6196930;23;20412;-70
2021/08/06 12:13:22;;;;;;;2.57;2.37;;;21.10;99.90;;;;;;6197633;23;20725;-71
2021/08/06 12:16:07;;;;;;;3.20;2.30;;;21.10;99.90;;;;;;6197006;23;20471;-71
2021/08/06 12:18:37;;;;;;;2.33;2.13;;;21.00;99.90;;;;;;6160254;23;20410;-71
2021/08/06 12:21:09;;;;;;;2.83;2.63;;;20.90;99.90;;;;;;6197140;23;20411;-71
2021/08/06 12:23:38;;;;;;;3.60;2.50;;;20.90;99.90;;;;;;6196573;23;20463;-70
2021/08/06 12:26:10;;;;;;;2.80;2.50;;;20.90;99.90;;;;;;6159148;23;20415;-70
2021/08/06 12:28:39;;;;;;;3.27;3.07;;;21.00;99.90;;;;;;6196660;23;20181;-70
2021/08/06 12:31:27;;;;;;;2.40;2.20;;;20.90;99.90;;;;;;6195936;23;20409;-70
2021/08/06 12:34:07;;;;;;;4.27;3.87;;;21.00;99.90;;;;;;6196997;23;20208;-70
2021/08/06 12:36:37;;;;;;;3.50;3.10;;;21.00;99.90;;;;;;6196805;23;20408;-70
2021/08/06 12:39:11;;;;;;;2.77;2.57;;;20.90;99.90;;;;;;6196242;23;20707;-70
2021/08/06 12:41:41;;;;;;;2.43;2.23;;;20.90;99.90;;;;;;6154874;23;20482;-70
2021/08/06 12:44:28;;;;;;;2.83;2.63;;;21.00;99.90;;;;;;6166674;23;20438;-69
2021/08/06 12:47:01;;;;;;;2.10;2.00;;;21.00;99.90;;;;;;6167415;23;20417;-69
2021/08/06 12:49:32;;;;;;;2.60;2.40;;;21.00;99.90;;;;;;6156516;23;20405;-69
2021/08/06 12:52:03;;;;;;;4.50;2.53;;;21.10;99.90;;;;;;6155024;23;20436;-69
2021/08/06 12:54:33;;;;;;;3.30;3.10;;;21.10;99.90;;;;;;6166901;23;20385;-69
2021/08/06 12:57:01;;;;;;;3.50;3.20;;;21.20;99.90;;;;;;6165261;23;20397;-69
2021/08/06 12:59:29;;;;;;;3.47;3.20;;;21.40;99.90;;;;;;6154998;23;20455;-69